createdAt,value
2017-04-22T00:00:50.612Z,958.51
2017-04-22T00:01:50.602Z,958.47
2017-04-22T00:02:50.591Z,958.44
2017-04-22T00:03:50.581Z,958.41
2017-04-22T00:04:50.570Z,958.43
2017-04-22T00:05:50.556Z,958.39
2017-04-22T00:06:50.547Z,958.39
2017-04-22T00:07:50.556Z,958.43
2017-04-22T00:08:50.524Z,958.43
2017-04-22T00:09:50.513Z,958.39
2017-04-22T00:10:50.502Z,958.4
2017-04-22T00:11:50.491Z,958.34
2017-04-22T00:12:50.480Z,958.32
2017-04-22T00:13:50.469Z,958.35
2017-04-22T00:14:50.458Z,958.3
2017-04-22T00:15:50.447Z,958.3
2017-04-22T00:16:50.434Z,958.3
2017-04-22T00:17:50.425Z,958.23
2017-04-22T00:18:50.413Z,958.24
2017-04-22T00:19:50.402Z,958.19
2017-04-22T00:20:50.389Z,958.24
2017-04-22T00:21:50.380Z,958.24
2017-04-22T00:22:50.369Z,958.26
2017-04-22T00:23:50.358Z,958.24
2017-04-22T00:24:50.346Z,958.23
2017-04-22T00:25:50.342Z,958.24
2017-04-22T00:26:50.324Z,958.22
2017-04-22T00:27:50.313Z,958.27
2017-04-22T00:28:50.301Z,958.26
2017-04-22T00:29:50.291Z,958.23
2017-04-22T00:30:50.279Z,958.16
2017-04-22T00:31:50.267Z,958.21
2017-04-22T00:32:50.257Z,958.18
2017-04-22T00:33:50.246Z,958.17
2017-04-22T00:34:50.235Z,958.13
2017-04-22T00:35:50.223Z,958.16
2017-04-22T00:36:50.212Z,958.12
2017-04-22T00:37:50.200Z,958.15
2017-04-22T00:38:50.189Z,958.15
2017-04-22T00:39:50.178Z,958.13
2017-04-22T00:40:50.167Z,958.15
2017-04-22T00:41:50.156Z,958.18
2017-04-22T00:42:50.145Z,958.14
2017-04-22T00:43:50.135Z,958.17
2017-04-22T00:44:50.124Z,958.12
2017-04-22T00:45:50.111Z,958.06
2017-04-22T00:46:50.099Z,958.05
2017-04-22T00:47:50.090Z,958.02
2017-04-22T00:48:50.078Z,958.07
2017-04-22T00:49:50.066Z,958.06
2017-04-22T00:50:50.055Z,958.04
2017-04-22T00:51:50.047Z,958.06
2017-04-22T00:52:50.033Z,958.14
2017-04-22T00:53:50.020Z,958.11
2017-04-22T00:54:50.010Z,958.18
2017-04-22T00:55:49.998Z,958.13
2017-04-22T00:56:49.987Z,958.06
2017-04-22T00:57:49.975Z,958.07
2017-04-22T00:58:49.965Z,958.04
2017-04-22T00:59:49.952Z,957.99
2017-04-22T01:00:49.946Z,957.93
2017-04-22T01:01:49.930Z,957.79
2017-04-22T01:02:49.918Z,957.83
2017-04-22T01:03:49.907Z,957.83
2017-04-22T01:04:49.895Z,957.81
2017-04-22T01:05:49.884Z,957.87
2017-04-22T01:06:49.871Z,957.83
2017-04-22T01:07:49.862Z,957.81
2017-04-22T01:08:49.850Z,957.77
2017-04-22T01:09:49.839Z,957.79
2017-04-22T01:10:49.827Z,957.8
2017-04-22T01:11:49.814Z,957.75
2017-04-22T01:12:49.803Z,957.75
2017-04-22T01:13:49.793Z,957.7
2017-04-22T01:14:49.780Z,957.72
2017-04-22T01:15:49.768Z,957.71
2017-04-22T01:16:49.756Z,957.68
2017-04-22T01:17:49.745Z,957.69
2017-04-22T01:18:49.735Z,957.68
2017-04-22T01:19:49.722Z,957.68
2017-04-22T01:20:49.710Z,957.65
2017-04-22T01:21:49.699Z,957.68
2017-04-22T01:22:49.686Z,957.64
2017-04-22T01:23:49.676Z,957.68
2017-04-22T01:24:49.664Z,957.66
2017-04-22T01:25:49.652Z,957.63
2017-04-22T01:26:49.640Z,957.58
2017-04-22T01:27:49.628Z,957.58
2017-04-22T01:28:49.643Z,957.61
2017-04-22T01:29:49.605Z,957.67
2017-04-22T01:30:49.593Z,957.56
2017-04-22T01:31:49.582Z,957.56
2017-04-22T01:32:49.570Z,957.54
2017-04-22T01:33:49.558Z,957.53
2017-04-22T01:34:49.547Z,957.51
2017-04-22T01:35:49.537Z,957.48
2017-04-22T01:36:49.525Z,957.45
2017-04-22T01:37:49.513Z,957.49
2017-04-22T01:38:49.501Z,957.43
2017-04-22T01:39:49.491Z,957.41
2017-04-22T01:40:49.477Z,957.45
2017-04-22T01:41:49.466Z,957.47
2017-04-22T01:42:49.454Z,957.45
2017-04-22T01:43:49.442Z,957.41
2017-04-22T01:44:49.432Z,957.44
2017-04-22T01:45:49.420Z,957.41
2017-04-22T01:46:49.408Z,957.4
2017-04-22T01:47:49.398Z,957.43
2017-04-22T01:48:49.384Z,957.44
2017-04-22T01:49:49.373Z,957.42
2017-04-22T01:50:49.362Z,957.41
2017-04-22T01:51:49.350Z,957.43
2017-04-22T01:52:49.338Z,957.49
2017-04-22T01:53:49.327Z,957.46
2017-04-22T01:54:49.316Z,957.52
2017-04-22T01:55:49.305Z,957.47
2017-04-22T01:56:49.292Z,957.46
2017-04-22T01:57:49.282Z,957.43
2017-04-22T01:58:49.271Z,957.37
2017-04-22T01:59:49.258Z,957.35
2017-04-22T02:00:49.246Z,957.34
2017-04-22T02:01:49.233Z,957.34
2017-04-22T02:02:49.223Z,957.3
2017-04-22T02:03:49.211Z,957.32
2017-04-22T02:04:49.201Z,957.3
2017-04-22T02:05:49.190Z,957.31
2017-04-22T02:06:49.176Z,957.3
2017-04-22T02:07:49.165Z,957.28
2017-04-22T02:08:49.154Z,957.28
2017-04-22T02:09:49.142Z,957.31
2017-04-22T02:10:49.129Z,957.28
2017-04-22T02:11:49.119Z,957.25
2017-04-22T02:12:49.106Z,957.19
2017-04-22T02:13:49.093Z,957.21
2017-04-22T02:14:49.083Z,957.23
2017-04-22T02:15:49.072Z,957.17
2017-04-22T02:16:49.063Z,957.17
2017-04-22T02:17:49.048Z,957.15
2017-04-22T02:18:49.037Z,957.11
2017-04-22T02:19:49.029Z,957.1
2017-04-22T02:20:49.014Z,957.11
2017-04-22T02:21:49.002Z,957.11
2017-04-22T02:22:48.989Z,957.05
2017-04-22T02:23:48.978Z,957.05
2017-04-22T02:24:48.965Z,957.01
2017-04-22T02:25:48.955Z,957.05
2017-04-22T02:26:48.943Z,957.06
2017-04-22T02:27:48.932Z,957.05
2017-04-22T02:28:48.920Z,957.02
2017-04-22T02:29:48.909Z,957.02
2017-04-22T02:30:48.896Z,957
2017-04-22T02:31:48.886Z,956.97
2017-04-22T02:32:48.872Z,956.98
2017-04-22T02:33:48.862Z,957.02
2017-04-22T02:34:48.851Z,957
2017-04-22T02:35:48.839Z,957.02
2017-04-22T02:36:48.826Z,956.98
2017-04-22T02:37:48.815Z,956.94
2017-04-22T02:38:48.805Z,956.95
2017-04-22T02:39:48.792Z,956.93
2017-04-22T02:40:48.780Z,956.9
2017-04-22T02:41:48.768Z,956.95
2017-04-22T02:42:48.759Z,956.97
2017-04-22T02:43:48.746Z,956.91
2017-04-22T02:44:48.737Z,956.94
2017-04-22T02:45:48.726Z,956.93
2017-04-22T02:46:48.711Z,956.97
2017-04-22T02:47:48.699Z,956.94
2017-04-22T02:48:48.689Z,956.92
2017-04-22T02:49:48.677Z,956.91
2017-04-22T02:50:48.663Z,956.89
2017-04-22T02:51:48.654Z,956.84
2017-04-22T02:52:48.642Z,956.86
2017-04-22T02:53:48.628Z,956.82
2017-04-22T02:54:48.619Z,956.86
2017-04-22T02:55:48.607Z,956.85
2017-04-22T02:56:48.596Z,956.8
2017-04-22T02:57:48.583Z,956.8
2017-04-22T02:58:48.573Z,956.79
2017-04-22T02:59:48.560Z,956.75
2017-04-22T03:00:48.549Z,956.79
2017-04-22T03:01:48.536Z,956.77
2017-04-22T03:02:48.525Z,956.78
2017-04-22T03:03:48.513Z,956.78
2017-04-22T03:04:48.502Z,956.73
2017-04-22T03:05:48.490Z,956.78
2017-04-22T03:06:48.478Z,956.75
2017-04-22T03:07:48.468Z,956.81
2017-04-22T03:08:48.455Z,956.77
2017-04-22T03:09:48.443Z,956.82
2017-04-22T03:10:48.432Z,956.77
2017-04-22T03:11:48.420Z,956.77
2017-04-22T03:12:48.408Z,956.78
2017-04-22T03:13:48.397Z,956.8
2017-04-22T03:14:48.385Z,956.78
2017-04-22T03:15:48.374Z,956.81
2017-04-22T03:16:48.361Z,956.78
2017-04-22T03:17:48.350Z,956.77
2017-04-22T03:18:48.340Z,956.79
2017-04-22T03:19:48.327Z,956.78
2017-04-22T03:20:48.315Z,956.78
2017-04-22T03:21:48.305Z,956.77
2017-04-22T03:22:48.292Z,956.78
2017-04-22T03:23:48.281Z,956.78
2017-04-22T03:24:48.268Z,956.72
2017-04-22T03:25:48.256Z,956.75
2017-04-22T03:26:48.244Z,956.7
2017-04-22T03:27:48.234Z,956.74
2017-04-22T03:28:48.222Z,956.78
2017-04-22T03:29:48.210Z,956.74
2017-04-22T03:30:48.198Z,956.71
2017-04-22T03:31:48.187Z,956.72
2017-04-22T03:32:48.175Z,956.73
2017-04-22T03:33:48.163Z,956.68
2017-04-22T03:34:48.150Z,956.68
2017-04-22T03:35:48.140Z,956.66
2017-04-22T03:36:48.127Z,956.64
2017-04-22T03:37:48.116Z,956.7
2017-04-22T03:38:48.105Z,956.63
2017-04-22T03:39:48.093Z,956.68
2017-04-22T03:40:48.080Z,956.65
2017-04-22T03:41:48.070Z,956.69
2017-04-22T03:42:48.058Z,956.65
2017-04-22T03:43:48.046Z,956.67
2017-04-22T03:44:48.034Z,956.64
2017-04-22T03:45:48.020Z,956.59
2017-04-22T03:46:48.010Z,956.65
2017-04-22T03:47:47.997Z,956.68
2017-04-22T03:48:47.986Z,956.64
2017-04-22T03:49:47.975Z,956.65
2017-04-22T03:50:47.962Z,956.63
2017-04-22T03:51:47.951Z,956.59
2017-04-22T03:52:47.937Z,956.6
2017-04-22T03:53:47.927Z,956.58
2017-04-22T03:54:47.917Z,956.59
2017-04-22T03:55:47.903Z,956.63
2017-04-22T03:56:47.891Z,956.62
2017-04-22T03:57:47.879Z,956.62
2017-04-22T03:58:47.867Z,956.61
2017-04-22T03:59:47.854Z,956.59
2017-04-22T04:00:47.842Z,956.61
2017-04-22T04:01:47.832Z,956.56
2017-04-22T04:02:47.820Z,956.54
2017-04-22T04:03:47.807Z,956.53
2017-04-22T04:04:47.799Z,956.54
2017-04-22T04:05:47.783Z,956.52
2017-04-22T04:06:47.772Z,956.51
2017-04-22T04:07:47.759Z,956.49
2017-04-22T04:08:47.747Z,956.51
2017-04-22T04:09:47.737Z,956.53
2017-04-22T04:10:47.723Z,956.55
2017-04-22T04:11:47.712Z,956.51
2017-04-22T04:12:47.700Z,956.55
2017-04-22T04:13:47.689Z,956.54
2017-04-22T04:14:47.675Z,956.53
2017-04-22T04:15:47.665Z,956.55
2017-04-22T04:16:47.652Z,956.55
2017-04-22T04:17:47.640Z,956.56
2017-04-22T04:18:47.630Z,956.6
2017-04-22T04:19:47.618Z,956.57
2017-04-22T04:20:47.607Z,956.52
2017-04-22T04:21:47.593Z,956.54
2017-04-22T04:22:47.583Z,956.54
2017-04-22T04:23:47.570Z,956.54
2017-04-22T04:24:47.558Z,956.6
2017-04-22T04:25:47.546Z,956.55
2017-04-22T04:26:47.534Z,956.62
2017-04-22T04:27:47.523Z,956.54
2017-04-22T04:28:47.510Z,956.58
2017-04-22T04:29:47.498Z,956.6
2017-04-22T04:30:47.487Z,956.58
2017-04-22T04:31:47.475Z,956.61
2017-04-22T04:32:47.462Z,956.58
2017-04-22T04:33:47.450Z,956.57
2017-04-22T04:34:47.438Z,956.57
2017-04-22T04:35:47.426Z,956.56
2017-04-22T04:36:47.413Z,956.61
2017-04-22T04:37:47.402Z,956.56
2017-04-22T04:38:47.390Z,956.56
2017-04-22T04:39:47.379Z,956.53
2017-04-22T04:40:47.366Z,956.52
2017-04-22T04:41:47.355Z,956.49
2017-04-22T04:42:47.343Z,956.45
2017-04-22T04:43:47.331Z,956.54
2017-04-22T04:44:47.318Z,956.52
2017-04-22T04:45:47.306Z,956.49
2017-04-22T04:46:47.295Z,956.52
2017-04-22T04:47:47.283Z,956.52
2017-04-22T04:48:47.270Z,956.47
2017-04-22T04:49:47.259Z,956.51
2017-04-22T04:50:47.246Z,956.54
2017-04-22T04:51:47.234Z,956.53
2017-04-22T04:52:47.222Z,956.54
2017-04-22T04:53:47.211Z,956.52
2017-04-22T04:54:47.198Z,956.56
2017-04-22T04:55:47.187Z,956.58
2017-04-22T04:56:47.176Z,956.51
2017-04-22T04:57:47.163Z,956.56
2017-04-22T04:58:47.150Z,956.5
2017-04-22T04:59:47.137Z,956.51
2017-04-22T05:00:47.127Z,956.58
2017-04-22T05:01:47.115Z,956.57
2017-04-22T05:02:47.103Z,956.55
2017-04-22T05:03:47.090Z,956.56
2017-04-22T05:04:47.078Z,956.55
2017-04-22T05:05:47.065Z,956.54
2017-04-22T05:06:47.054Z,956.57
2017-04-22T05:07:47.042Z,956.54
2017-04-22T05:08:47.029Z,956.54
2017-04-22T05:09:47.017Z,956.56
2017-04-22T05:10:47.004Z,956.58
2017-04-22T05:11:46.996Z,956.6
2017-04-22T05:12:46.979Z,956.56
2017-04-22T05:13:46.969Z,956.53
2017-04-22T05:14:46.956Z,956.56
2017-04-22T05:15:46.946Z,956.57
2017-04-22T05:16:46.933Z,956.54
2017-04-22T05:17:46.920Z,956.66
2017-04-22T05:18:46.909Z,956.58
2017-04-22T05:19:46.896Z,956.59
2017-04-22T05:20:46.884Z,956.58
2017-04-22T05:21:46.873Z,956.56
2017-04-22T05:22:46.860Z,956.59
2017-04-22T05:23:46.848Z,956.59
2017-04-22T05:24:46.835Z,956.55
2017-04-22T05:25:46.823Z,956.63
2017-04-22T05:26:46.811Z,956.57
2017-04-22T05:27:46.806Z,956.61
2017-04-22T05:28:46.788Z,956.57
2017-04-22T05:29:46.774Z,956.6
2017-04-22T05:30:46.765Z,956.61
2017-04-22T05:31:46.750Z,956.61
2017-04-22T05:32:46.738Z,956.65
2017-04-22T05:33:46.726Z,956.62
2017-04-22T05:34:46.716Z,956.61
2017-04-22T05:35:46.703Z,956.61
2017-04-22T05:36:46.691Z,956.63
2017-04-22T05:37:46.678Z,956.64
2017-04-22T05:38:46.667Z,956.6
2017-04-22T05:39:46.655Z,956.65
2017-04-22T05:40:46.641Z,956.67
2017-04-22T05:41:46.698Z,956.65
2017-04-22T05:42:46.617Z,956.65
2017-04-22T05:43:46.606Z,956.61
2017-04-22T05:44:46.594Z,956.68
2017-04-22T05:45:46.580Z,956.64
2017-04-22T05:46:46.569Z,956.63
2017-04-22T05:47:46.557Z,956.62
2017-04-22T05:48:46.545Z,956.64
2017-04-22T05:49:46.531Z,956.59
2017-04-22T05:50:46.520Z,956.67
2017-04-22T05:51:46.509Z,956.65
2017-04-22T05:52:46.495Z,956.6
2017-04-22T05:53:46.484Z,956.64
2017-04-22T05:54:46.473Z,956.6
2017-04-22T05:55:46.461Z,956.61
2017-04-22T05:56:46.447Z,956.59
2017-04-22T05:57:46.435Z,956.6
2017-04-22T05:58:46.423Z,956.62
2017-04-22T05:59:46.411Z,956.6
2017-04-22T06:00:46.399Z,956.58
2017-04-22T06:01:46.386Z,956.61
2017-04-22T06:02:46.375Z,956.6
2017-04-22T06:03:46.362Z,956.65
2017-04-22T06:04:46.349Z,956.65
2017-04-22T06:05:46.338Z,956.65
2017-04-22T06:06:46.327Z,956.64
2017-04-22T06:07:46.313Z,956.72
2017-04-22T06:08:46.303Z,956.73
2017-04-22T06:09:46.291Z,956.83
2017-04-22T06:10:46.277Z,956.79
2017-04-22T06:11:46.264Z,956.79
2017-04-22T06:12:46.253Z,956.84
2017-04-22T06:13:46.241Z,956.93
2017-04-22T06:14:46.227Z,956.81
2017-04-22T06:15:46.216Z,956.89
2017-04-22T06:16:46.201Z,956.9
2017-04-22T06:17:46.191Z,956.96
2017-04-22T06:18:46.178Z,956.99
2017-04-22T06:19:46.163Z,957
2017-04-22T06:20:46.152Z,957.01
2017-04-22T06:21:46.140Z,956.97
2017-04-22T06:22:46.125Z,956.85
2017-04-22T06:23:46.113Z,956.93
2017-04-22T06:24:46.101Z,956.95
2017-04-22T06:25:46.084Z,956.92
2017-04-22T06:26:46.076Z,956.94
2017-04-22T06:27:46.059Z,956.92
2017-04-22T06:28:46.045Z,956.94
2017-04-22T06:29:46.031Z,956.97
2017-04-22T06:30:46.021Z,956.91
2017-04-22T06:31:46.004Z,956.81
2017-04-22T06:32:45.991Z,956.82
2017-04-22T06:33:45.977Z,956.82
2017-04-22T06:34:45.962Z,956.89
2017-04-22T06:35:45.950Z,956.83
2017-04-22T06:36:45.934Z,956.81
2017-04-22T06:37:45.920Z,956.8
2017-04-22T06:38:45.907Z,956.83
2017-04-22T06:39:45.893Z,956.84
2017-04-22T06:40:45.880Z,956.85
2017-04-22T06:41:45.865Z,956.83
2017-04-22T06:42:45.851Z,956.91
2017-04-22T06:43:45.838Z,956.92
2017-04-22T06:44:45.822Z,956.88
2017-04-22T06:45:45.811Z,956.86
2017-04-22T06:46:45.794Z,956.89
2017-04-22T06:47:45.783Z,956.95
2017-04-22T06:48:45.767Z,956.97
2017-04-22T06:49:45.752Z,957
2017-04-22T06:50:45.738Z,956.95
2017-04-22T06:51:45.724Z,956.96
2017-04-22T06:52:45.710Z,957.01
2017-04-22T06:53:45.696Z,956.96
2017-04-22T06:54:45.682Z,956.98
2017-04-22T06:55:45.666Z,956.94
2017-04-22T06:56:45.653Z,956.98
2017-04-22T06:57:45.639Z,956.94
2017-04-22T06:58:45.624Z,956.91
2017-04-22T06:59:45.610Z,956.92
2017-04-22T07:00:45.596Z,956.91
2017-04-22T07:01:45.581Z,956.92
2017-04-22T07:02:45.566Z,956.94
2017-04-22T07:03:45.553Z,956.87
2017-04-22T07:04:45.540Z,956.88
2017-04-22T07:05:45.525Z,956.73
2017-04-22T07:06:45.509Z,956.76
2017-04-22T07:07:45.496Z,956.78
2017-04-22T07:08:45.482Z,956.75
2017-04-22T07:09:45.467Z,956.78
2017-04-22T07:10:45.452Z,956.81
2017-04-22T07:11:45.438Z,956.82
2017-04-22T07:12:45.424Z,956.86
2017-04-22T07:13:45.411Z,956.87
2017-04-22T07:14:45.396Z,956.87
2017-04-22T07:15:45.382Z,956.86
2017-04-22T07:16:45.367Z,956.9
2017-04-22T07:17:45.353Z,956.86
2017-04-22T07:18:45.340Z,956.84
2017-04-22T07:19:45.325Z,956.82
2017-04-22T07:20:45.310Z,956.8
2017-04-22T07:21:45.295Z,956.89
2017-04-22T07:22:45.283Z,956.85
2017-04-22T07:23:45.268Z,956.9
2017-04-22T07:24:45.254Z,956.93
2017-04-22T07:25:45.240Z,956.92
2017-04-22T07:26:45.225Z,956.88
2017-04-22T07:27:45.212Z,956.88
2017-04-22T07:28:45.200Z,956.96
2017-04-22T07:29:45.183Z,956.94
2017-04-22T07:30:45.171Z,956.94
2017-04-22T07:31:45.157Z,956.95
2017-04-22T07:32:45.141Z,956.93
2017-04-22T07:33:45.128Z,956.95
2017-04-22T07:34:45.115Z,956.96
2017-04-22T07:35:45.099Z,957.04
2017-04-22T07:36:45.086Z,957
2017-04-22T07:37:45.072Z,956.98
2017-04-22T07:38:45.059Z,956.97
2017-04-22T07:39:45.092Z,956.99
2017-04-22T07:40:45.030Z,956.96
2017-04-22T07:41:45.016Z,956.9
2017-04-22T07:42:45.001Z,956.91
2017-04-22T07:43:44.989Z,956.92
2017-04-22T07:44:44.974Z,956.92
2017-04-22T07:45:44.961Z,956.9
2017-04-22T07:46:44.946Z,956.87
2017-04-22T07:47:44.932Z,956.87
2017-04-22T07:48:44.918Z,956.92
2017-04-22T07:49:44.904Z,956.87
2017-04-22T07:50:44.890Z,956.89
2017-04-22T07:51:44.880Z,956.89
2017-04-22T07:52:44.862Z,956.9
2017-04-22T07:53:44.846Z,956.89
2017-04-22T07:54:44.833Z,956.9
2017-04-22T07:55:44.820Z,956.86
2017-04-22T07:56:44.806Z,956.84
2017-04-22T07:57:44.792Z,956.85
2017-04-22T07:58:44.777Z,956.87
2017-04-22T07:59:44.768Z,956.87
2017-04-22T08:00:44.748Z,956.91
2017-04-22T08:01:44.735Z,956.96
2017-04-22T08:02:44.721Z,956.94
2017-04-22T08:03:44.708Z,956.93
2017-04-22T08:04:44.696Z,956.96
2017-04-22T08:05:44.681Z,956.97
2017-04-22T08:06:44.664Z,956.96
2017-04-22T08:07:44.652Z,956.99
2017-04-22T08:08:44.638Z,956.96
2017-04-22T08:09:44.624Z,956.97
2017-04-22T08:10:44.610Z,956.95
2017-04-22T08:11:44.594Z,956.99
2017-04-22T08:12:44.580Z,956.99
2017-04-22T08:13:44.567Z,956.95
2017-04-22T08:14:44.554Z,956.94
2017-04-22T08:15:44.540Z,956.93
2017-04-22T08:16:44.525Z,956.94
2017-04-22T08:17:44.511Z,956.96
2017-04-22T08:18:44.498Z,956.95
2017-04-22T08:19:44.483Z,956.96
2017-04-22T08:20:44.468Z,957
2017-04-22T08:21:44.456Z,957.05
2017-04-22T08:22:44.443Z,957.02
2017-04-22T08:23:44.428Z,957.09
2017-04-22T08:24:44.412Z,957.05
2017-04-22T08:25:44.399Z,957
2017-04-22T08:26:44.385Z,957.01
2017-04-22T08:27:44.371Z,957.02
2017-04-22T08:28:44.356Z,957.02
2017-04-22T08:29:44.343Z,957.03
2017-04-22T08:30:44.328Z,957.03
2017-04-22T08:31:44.315Z,957.06
2017-04-22T08:32:44.301Z,956.99
2017-04-22T08:33:44.287Z,956.96
2017-04-22T08:34:44.271Z,956.93
2017-04-22T08:35:44.259Z,956.98
2017-04-22T08:36:44.244Z,956.94
2017-04-22T08:37:44.230Z,956.97
2017-04-22T08:38:44.216Z,957.01
2017-04-22T08:39:44.202Z,957.03
2017-04-22T08:40:44.187Z,957.04
2017-04-22T08:41:44.174Z,957.03
2017-04-22T08:42:44.160Z,956.99
2017-04-22T08:43:44.147Z,956.99
2017-04-22T08:44:44.131Z,956.98
2017-04-22T08:45:44.117Z,957.03
2017-04-22T08:46:44.106Z,957.02
2017-04-22T08:47:44.089Z,957
2017-04-22T08:48:44.075Z,957
2017-04-22T08:49:44.061Z,957
2017-04-22T08:50:44.048Z,957.07
2017-04-22T08:51:44.037Z,957.05
2017-04-22T08:52:44.020Z,957.12
2017-04-22T08:53:44.006Z,957.14
2017-04-22T08:54:43.991Z,957.1
2017-04-22T08:55:43.976Z,957.06
2017-04-22T08:56:43.962Z,957.05
2017-04-22T08:57:43.951Z,957.08
2017-04-22T08:58:43.935Z,957.12
2017-04-22T08:59:43.922Z,957.06
2017-04-22T09:00:43.907Z,957.02
2017-04-22T09:01:43.894Z,957.07
2017-04-22T09:02:43.880Z,957.03
2017-04-22T09:03:43.866Z,957.07
2017-04-22T09:04:43.854Z,957.04
2017-04-22T09:05:43.839Z,957.03
2017-04-22T09:06:43.824Z,957.02
2017-04-22T09:07:43.812Z,957.06
2017-04-22T09:08:43.797Z,956.98
2017-04-22T09:09:43.785Z,957.06
2017-04-22T09:10:43.769Z,957.07
2017-04-22T09:11:43.757Z,957.1
2017-04-22T09:12:43.744Z,957.09
2017-04-22T09:13:43.729Z,957.08
2017-04-22T09:14:43.715Z,957.11
2017-04-22T09:15:43.701Z,957.14
2017-04-22T09:16:43.689Z,957.14
2017-04-22T09:17:43.674Z,957.19
2017-04-22T09:18:43.659Z,957.14
2017-04-22T09:19:43.647Z,957.08
2017-04-22T09:20:43.633Z,957.14
2017-04-22T09:21:43.619Z,957.17
2017-04-22T09:22:43.604Z,957.22
2017-04-22T09:23:43.591Z,957.26
2017-04-22T09:24:43.576Z,957.26
2017-04-22T09:25:43.564Z,957.32
2017-04-22T09:26:43.549Z,957.33
2017-04-22T09:27:43.535Z,957.37
2017-04-22T09:28:43.521Z,957.34
2017-04-22T09:29:43.507Z,957.34
2017-04-22T09:30:43.492Z,957.35
2017-04-22T09:31:43.479Z,957.31
2017-04-22T09:32:43.464Z,957.35
2017-04-22T09:33:43.450Z,957.37
2017-04-22T09:34:43.435Z,957.35
2017-04-22T09:35:43.420Z,957.41
2017-04-22T09:36:43.406Z,957.39
2017-04-22T09:37:43.393Z,957.37
2017-04-22T09:38:43.379Z,957.41
2017-04-22T09:39:43.364Z,957.33
2017-04-22T09:40:43.349Z,957.36
2017-04-22T09:41:43.336Z,957.37
2017-04-22T09:42:43.323Z,957.38
2017-04-22T09:43:43.308Z,957.34
2017-04-22T09:44:43.293Z,957.35
2017-04-22T09:45:43.279Z,957.4
2017-04-22T09:46:43.278Z,957.39
2017-04-22T09:47:43.251Z,957.44
2017-04-22T09:48:43.238Z,957.43
2017-04-22T09:49:43.222Z,957.42
2017-04-22T09:50:43.248Z,957.43
2017-04-22T09:51:43.195Z,957.43
2017-04-22T09:52:43.181Z,957.4
2017-04-22T09:53:43.167Z,957.44
2017-04-22T09:54:43.151Z,957.45
2017-04-22T09:55:43.146Z,957.44
2017-04-22T09:56:43.123Z,957.43
2017-04-22T09:57:43.108Z,957.3
2017-04-22T09:58:43.095Z,957.4
2017-04-22T09:59:43.080Z,957.38
2017-04-22T10:00:43.066Z,957.34
2017-04-22T10:01:43.053Z,957.35
2017-04-22T10:02:43.038Z,957.4
2017-04-22T10:03:43.023Z,957.38
2017-04-22T10:04:43.010Z,957.43
2017-04-22T10:05:42.992Z,957.42
2017-04-22T10:06:42.980Z,957.4
2017-04-22T10:07:42.967Z,957.39
2017-04-22T10:08:42.954Z,957.4
2017-04-22T10:09:42.939Z,957.36
2017-04-22T10:10:42.923Z,957.35
2017-04-22T10:11:42.909Z,957.33
2017-04-22T10:12:42.895Z,957.39
2017-04-22T10:13:42.880Z,957.3
2017-04-22T10:14:42.866Z,957.34
2017-04-22T10:15:42.851Z,957.29
2017-04-22T10:16:42.838Z,957.25
2017-04-22T10:17:42.823Z,957.26
2017-04-22T10:18:42.811Z,957.25
2017-04-22T10:19:42.795Z,957.28
2017-04-22T10:20:42.781Z,957.25
2017-04-22T10:21:42.766Z,957.28
2017-04-22T10:22:42.753Z,957.29
2017-04-22T10:23:42.739Z,957.26
2017-04-22T10:24:42.725Z,957.19
2017-04-22T10:25:42.712Z,957.16
2017-04-22T10:26:42.696Z,957.17
2017-04-22T10:27:42.681Z,957.21
2017-04-22T10:28:42.667Z,957.19
2017-04-22T10:29:42.655Z,957.23
2017-04-22T10:30:42.639Z,957.18
2017-04-22T10:31:42.625Z,957.2
2017-04-22T10:32:42.611Z,957.14
2017-04-22T10:33:42.598Z,957.17
2017-04-22T10:34:42.582Z,957.13
2017-04-22T10:35:42.569Z,957.1
2017-04-22T10:36:42.557Z,957.06
2017-04-22T10:37:42.543Z,957.04
2017-04-22T10:38:42.530Z,957.08
2017-04-22T10:39:42.515Z,956.99
2017-04-22T10:40:42.501Z,957.02
2017-04-22T10:41:42.488Z,957.03
2017-04-22T10:42:42.474Z,957.08
2017-04-22T10:43:42.461Z,957.1
2017-04-22T10:44:42.472Z,957.1
2017-04-22T10:45:42.433Z,957.1
2017-04-22T10:46:42.422Z,957.09
2017-04-22T10:47:42.407Z,957.1
2017-04-22T10:48:42.395Z,957.04
2017-04-22T10:49:42.380Z,957.04
2017-04-22T10:50:42.370Z,957.02
2017-04-22T10:51:42.354Z,957
2017-04-22T10:52:42.340Z,957.02
2017-04-22T10:53:42.328Z,957.01
2017-04-22T10:54:42.315Z,956.95
2017-04-22T10:55:42.303Z,957.02
2017-04-22T10:56:42.288Z,957.01
2017-04-22T10:57:42.277Z,957.05
2017-04-22T10:58:42.288Z,957.02
2017-04-22T10:59:42.275Z,957.02
2017-04-22T11:00:42.262Z,957.02
2017-04-22T11:01:42.292Z,956.99
2017-04-22T11:02:42.281Z,957.02
2017-04-22T11:03:42.267Z,956.97
2017-04-22T11:04:42.292Z,956.97
2017-04-22T11:05:42.281Z,956.95
2017-04-22T11:06:42.269Z,956.94
2017-04-22T11:07:42.296Z,956.89
2017-04-22T11:08:42.283Z,956.87
2017-04-22T11:09:42.271Z,956.89
2017-04-22T11:10:42.297Z,956.88
2017-04-22T11:11:42.283Z,956.91
2017-04-22T11:12:42.274Z,956.86
2017-04-22T11:13:42.298Z,956.86
2017-04-22T11:14:42.284Z,956.83
2017-04-22T11:15:42.274Z,956.83
2017-04-22T11:16:42.301Z,956.84
2017-04-22T11:17:42.292Z,956.83
2017-04-22T11:18:42.277Z,956.81
2017-04-22T11:19:42.303Z,956.76
2017-04-22T11:20:42.291Z,956.76
2017-04-22T11:21:42.280Z,956.74
2017-04-22T11:22:42.305Z,956.71
2017-04-22T11:23:42.294Z,956.71
2017-04-22T11:24:42.281Z,956.76
2017-04-22T11:25:42.306Z,956.75
2017-04-22T11:26:42.295Z,956.66
2017-04-22T11:27:42.283Z,956.61
2017-04-22T11:28:42.307Z,956.62
2017-04-22T11:29:42.296Z,956.64
2017-04-22T11:30:42.285Z,956.6
2017-04-22T11:31:42.312Z,956.56
2017-04-22T11:32:42.300Z,956.55
2017-04-22T11:33:42.290Z,956.53
2017-04-22T11:34:42.316Z,956.58
2017-04-22T11:35:42.304Z,956.6
2017-04-22T11:36:42.292Z,956.61
2017-04-22T11:37:42.318Z,956.63
2017-04-22T11:38:42.306Z,956.58
2017-04-22T11:39:42.294Z,956.58
2017-04-22T11:40:42.321Z,956.54
2017-04-22T11:41:42.309Z,956.6
2017-04-22T11:42:42.297Z,956.56
2017-04-22T11:43:42.324Z,956.39
2017-04-22T11:44:42.311Z,956.47
2017-04-22T11:45:42.299Z,956.43
2017-04-22T11:46:42.329Z,956.43
2017-04-22T11:47:42.317Z,956.45
2017-04-22T11:48:42.304Z,956.44
2017-04-22T11:49:42.330Z,956.42
2017-04-22T11:50:42.319Z,956.49
2017-04-22T11:51:42.309Z,956.38
2017-04-22T11:52:42.298Z,956.36
2017-04-22T11:53:42.287Z,956.25
2017-04-22T11:54:42.276Z,956.3
2017-04-22T11:55:42.266Z,956.37
2017-04-22T11:56:42.254Z,956.36
2017-04-22T11:57:42.243Z,956.33
2017-04-22T11:58:42.233Z,956.35
2017-04-22T11:59:42.221Z,956.32
2017-04-22T12:00:42.231Z,956.4
2017-04-22T12:01:42.198Z,956.3
2017-04-22T12:02:42.188Z,956.26
2017-04-22T12:03:42.176Z,956.3
2017-04-22T12:04:42.165Z,956.3
2017-04-22T12:05:42.155Z,956.29
2017-04-22T12:06:42.142Z,956.37
2017-04-22T12:07:42.138Z,956.36
2017-04-22T12:08:42.121Z,956.39
2017-04-22T12:09:42.110Z,956.33
2017-04-22T12:10:42.096Z,956.33
2017-04-22T12:11:42.086Z,956.29
2017-04-22T12:12:42.076Z,956.26
2017-04-22T12:13:42.064Z,956.21
2017-04-22T12:14:42.053Z,956.24
2017-04-22T12:15:42.040Z,956.23
2017-04-22T12:16:42.032Z,956.31
2017-04-22T12:17:42.021Z,956.27
2017-04-22T12:18:42.009Z,956.29
2017-04-22T12:19:41.996Z,956.28
2017-04-22T12:20:41.986Z,956.24
2017-04-22T12:21:41.973Z,956.29
2017-04-22T12:22:41.962Z,956.3
2017-04-22T12:23:41.950Z,956.3
2017-04-22T12:24:41.939Z,956.27
2017-04-22T12:25:41.925Z,956.31
2017-04-22T12:26:41.915Z,956.31
2017-04-22T12:27:41.904Z,956.4
2017-04-22T12:28:41.899Z,956.31
2017-04-22T12:29:41.879Z,956.32
2017-04-22T12:30:41.869Z,956.3
2017-04-22T12:31:41.857Z,956.32